Time;durP1;ratioP1;P1;durP2;ratioP2;P2;SDS_P1;SDS_P2;PMS_P1;PMS_P2;Temp;Humidity;BMP_temperature;BMP_pressure;BME280_temperature;BME280_humidity;BME280_pressure;Samples;Min_cycle;Max_cycle;Signal;HPM_P1;HPM_P2
2022/07/27 00:00:57;;;;;;;5.32;3.60;;;16.50;99.90;;;;;;5036689;28;20233;-93
2022/07/27 00:03:23;;;;;;;10.02;3.92;;;16.40;99.90;;;;;;5036563;28;20591;-92
2022/07/27 00:05:49;;;;;;;5.32;3.30;;;16.40;99.90;;;;;;5053956;28;20197;-92
2022/07/27 00:08:15;;;;;;;5.70;3.33;;;16.40;99.90;;;;;;5037547;28;20267;-93
2022/07/27 00:10:41;;;;;;;4.38;3.15;;;16.40;99.90;;;;;;5054519;28;20208;-93
2022/07/27 00:13:06;;;;;;;4.93;3.65;;;16.30;99.90;;;;;;5019854;28;20184;-93
2022/07/27 00:15:33;;;;;;;5.35;2.88;;;16.30;99.90;;;;;;5037348;28;20184;-93
2022/07/27 00:17:59;;;;;;;3.47;2.85;;;16.30;99.90;;;;;;5037056;28;20195;-95
2022/07/27 00:20:30;;;;;;;6.00;4.00;;;16.30;99.90;;;;;;5021225;28;20192;-94
2022/07/27 00:22:56;;;;;;;4.28;3.20;;;16.30;99.90;;;;;;5036772;28;20184;-95
2022/07/27 00:25:22;;;;;;;3.95;2.92;;;16.20;99.90;;;;;;5037064;28;20179;-96
2022/07/27 00:27:48;;;;;;;5.85;3.72;;;16.30;99.90;;;;;;5037141;28;20363;-94
2022/07/27 00:30:14;;;;;;;5.38;3.97;;;16.20;99.90;;;;;;5036674;28;20675;-95
2022/07/27 00:32:40;;;;;;;5.80;4.63;;;16.30;99.90;;;;;;5037347;28;20235;-94
2022/07/27 00:35:06;;;;;;;6.38;4.45;;;16.30;99.90;;;;;;5037403;28;20191;-95
2022/07/27 00:37:32;;;;;;;9.95;4.72;;;16.30;99.90;;;;;;5020409;28;20208;-95
2022/07/27 00:39:57;;;;;;;6.72;3.92;;;16.20;99.90;;;;;;5054556;28;20275;-96
2022/07/27 00:42:27;;;;;;;10.25;5.63;;;16.20;99.90;;;;;;5054572;28;20176;-95
2022/07/27 00:44:56;;;;;;;7.63;4.20;;;16.20;99.90;;;;;;5036403;28;20603;-94
2022/07/27 00:47:22;;;;;;;7.97;5.25;;;16.20;99.90;;;;;;5054168;28;20184;-96
2022/07/27 00:49:48;;;;;;;8.18;5.18;;;16.20;99.90;;;;;;5054105;28;20199;-92
2022/07/27 00:52:15;;;;;;;8.10;5.00;;;16.20;99.90;;;;;;5054053;28;20176;-93
2022/07/27 00:54:44;;;;;;;6.75;4.50;;;16.10;99.90;;;;;;5054160;28;20178;-94
2022/07/27 00:57:12;;;;;;;9.10;4.22;;;16.20;99.90;;;;;;5036196;28;20211;-95
2022/07/27 00:59:38;;;;;;;6.45;4.03;;;16.20;99.90;;;;;;5022867;28;20248;-95
2022/07/27 01:02:05;;;;;;;7.40;4.53;;;16.20;99.90;;;;;;5039663;28;20215;-95
2022/07/27 01:04:30;;;;;;;9.25;5.25;;;16.20;99.90;;;;;;5023310;28;20186;-94
2022/07/27 01:06:56;;;;;;;6.43;4.60;;;16.20;99.90;;;;;;5039362;28;20192;-93
2022/07/27 01:12:09;;;;;;;8.35;5.07;;;16.10;99.90;;;;;;5042383;28;20249;-95
2022/07/27 01:14:37;;;;;;;8.70;4.80;;;16.10;99.90;;;;;;5039784;28;20203;-95
2022/07/27 01:17:03;;;;;;;7.35;4.30;;;16.20;99.90;;;;;;5023547;28;20265;-96
2022/07/27 01:19:28;;;;;;;4.90;3.40;;;16.10;99.90;;;;;;5057359;28;20259;-95
2022/07/27 01:21:54;;;;;;;9.73;4.50;;;16.10;99.90;;;;;;5023215;28;20184;-95
2022/07/27 01:24:20;;;;;;;10.13;3.55;;;16.10;99.90;;;;;;5039565;28;20184;-96
2022/07/27 01:26:45;;;;;;;5.22;3.90;;;16.10;99.90;;;;;;5039390;28;20263;-95
2022/07/27 01:29:11;;;;;;;7.90;4.30;;;16.10;99.90;;;;;;5040246;28;20641;-96
2022/07/27 01:31:36;;;;;;;7.40;4.35;;;16.10;99.90;;;;;;5059348;28;20688;-96
2022/07/27 01:34:03;;;;;;;5.03;4.20;;;16.10;99.90;;;;;;5062317;28;20175;-94
2022/07/27 01:36:29;;;;;;;5.82;3.95;;;16.10;99.90;;;;;;5047491;28;20160;-95
2022/07/27 01:38:55;;;;;;;6.07;4.35;;;16.10;99.90;;;;;;5080013;28;20183;-94
2022/07/27 01:41:20;;;;;;;6.70;3.67;;;16.00;99.90;;;;;;5048380;28;20182;-96
2022/07/27 01:43:46;;;;;;;6.82;3.88;;;16.00;99.90;;;;;;5065002;28;20180;-95
2022/07/27 01:46:12;;;;;;;4.82;3.58;;;16.00;99.90;;;;;;5062755;28;20206;-91
2022/07/27 01:48:37;;;;;;;6.55;3.80;;;16.00;99.90;;;;;;5041600;28;20183;-96
2022/07/27 01:51:03;;;;;;;9.52;4.22;;;16.10;99.90;;;;;;5060271;28;20179;-95
2022/07/27 01:53:29;;;;;;;5.82;3.83;;;16.00;99.90;;;;;;5042946;28;20700;-94
2022/07/27 01:55:54;;;;;;;10.35;4.53;;;16.00;99.90;;;;;;5047838;28;20210;-92
2022/07/27 01:58:20;;;;;;;6.40;4.22;;;16.00;99.90;;;;;;5055839;28;20207;-92
2022/07/27 02:00:47;;;;;;;6.97;4.72;;;16.00;99.90;;;;;;5055735;28;20191;-92
2022/07/27 02:03:13;;;;;;;6.03;3.85;;;16.00;99.90;;;;;;5073205;28;20265;-92
2022/07/27 02:05:38;;;;;;;12.07;5.05;;;16.00;99.90;;;;;;5060975;28;20180;-93
2022/07/27 02:08:05;;;;;;;6.85;4.32;;;16.00;99.90;;;;;;5066962;28;20257;-96
2022/07/27 02:10:32;;;;;;;9.35;4.60;;;16.00;99.90;;;;;;5040110;28;20237;-95
2022/07/27 02:12:57;;;;;;;6.53;4.20;;;15.90;99.90;;;;;;5038599;28;20645;-95
2022/07/27 02:15:25;;;;;;;7.93;5.10;;;15.90;99.90;;;;;;5038320;28;20186;-95
2022/07/27 02:17:53;;;;;;;7.95;5.20;;;16.00;99.90;;;;;;5038727;28;20199;-94
2022/07/27 02:20:21;;;;;;;8.82;4.85;;;16.00;99.90;;;;;;5056106;28;20617;-94
2022/07/27 02:22:47;;;;;;;7.57;4.45;;;16.00;99.90;;;;;;5056226;28;20254;-95
2022/07/27 02:25:14;;;;;;;7.57;5.05;;;16.00;99.90;;;;;;5055786;28;20260;-92
2022/07/27 02:27:41;;;;;;;9.65;5.43;;;15.90;99.90;;;;;;5055611;28;20194;-92
2022/07/27 02:30:08;;;;;;;10.32;4.63;;;15.80;99.90;;;;;;5055595;28;20167;-94
2022/07/27 02:32:34;;;;;;;9.15;4.78;;;15.90;99.90;;;;;;5038293;28;20235;-95
2022/07/27 02:35:00;;;;;;;9.77;5.70;;;15.90;99.90;;;;;;5055923;28;20540;-94
2022/07/27 02:37:25;;;;;;;9.35;4.68;;;15.90;99.90;;;;;;5038321;28;20216;-94
2022/07/27 02:39:51;;;;;;;8.48;4.90;;;15.90;99.90;;;;;;5021847;28;20183;-94
2022/07/27 02:42:18;;;;;;;7.60;5.07;;;15.90;99.90;;;;;;5039593;28;20184;-95
2022/07/27 02:44:43;;;;;;;11.05;5.45;;;15.90;99.90;;;;;;5050224;28;20190;-94
2022/07/27 02:47:09;;;;;;;7.50;4.65;;;15.90;99.90;;;;;;5028300;28;20187;-95
2022/07/27 02:49:35;;;;;;;16.27;5.80;;;15.90;99.90;;;;;;5058333;28;20160;-92
2022/07/27 02:52:00;;;;;;;9.95;5.78;;;15.90;99.90;;;;;;5062548;28;20168;-95
2022/07/27 02:54:26;;;;;;;11.63;4.78;;;15.90;99.90;;;;;;5078043;28;20199;-94
2022/07/27 02:56:53;;;;;;;9.85;4.93;;;15.90;99.90;;;;;;5074993;28;20247;-95
2022/07/27 02:59:21;;;;;;;9.10;5.85;;;15.90;99.90;;;;;;5064865;28;20183;-92
2022/07/27 03:01:47;;;;;;;8.35;5.43;;;15.90;99.90;;;;;;5052664;28;20202;-96
2022/07/27 03:04:14;;;;;;;8.45;5.22;;;15.90;99.90;;;;;;5067382;28;20180;-93
2022/07/27 03:06:40;;;;;;;7.72;4.95;;;15.90;99.90;;;;;;5076967;28;20187;-93
2022/07/27 03:09:06;;;;;;;10.00;5.20;;;15.90;99.90;;;;;;5076353;28;20187;-91
2022/07/27 03:11:31;;;;;;;6.50;4.50;;;15.90;99.90;;;;;;5076535;28;20176;-93
2022/07/27 03:13:57;;;;;;;9.75;4.95;;;16.00;99.90;;;;;;5059461;28;20176;-92
2022/07/27 03:16:22;;;;;;;9.85;6.00;;;16.00;99.90;;;;;;5048779;28;20183;-94
2022/07/27 03:18:48;;;;;;;8.10;5.13;;;16.00;99.90;;;;;;5057418;28;20283;-92
2022/07/27 03:21:14;;;;;;;11.98;4.35;;;16.00;99.90;;;;;;5039945;28;20245;-93
2022/07/27 03:23:40;;;;;;;7.97;5.07;;;15.90;99.90;;;;;;5039636;28;20644;-93
2022/07/27 03:26:06;;;;;;;8.23;4.65;;;15.80;99.90;;;;;;5056676;28;20184;-92
2022/07/27 03:28:31;;;;;;;7.78;4.85;;;15.70;99.90;;;;;;5038217;28;20189;-95
2022/07/27 03:30:57;;;;;;;9.48;4.70;;;15.90;99.90;;;;;;5038960;28;20183;-92
2022/07/27 03:33:23;;;;;;;8.40;4.97;;;15.90;99.90;;;;;;5038259;28;20167;-91
2022/07/27 03:35:49;;;;;;;9.82;5.10;;;15.90;99.90;;;;;;5036883;28;20211;-91
2022/07/27 03:38:14;;;;;;;10.65;5.55;;;15.80;99.90;;;;;;5053775;28;20286;-91
2022/07/27 03:40:40;;;;;;;6.20;4.25;;;15.90;99.90;;;;;;5053999;28;20639;-92
2022/07/27 03:43:06;;;;;;;9.35;5.22;;;15.90;99.90;;;;;;5054026;28;20535;-91
2022/07/27 03:45:32;;;;;;;8.07;5.03;;;15.90;99.90;;;;;;5053927;28;20614;-92
2022/07/27 03:47:58;;;;;;;10.95;6.03;;;15.90;99.90;;;;;;5036129;28;20206;-92
2022/07/27 03:50:23;;;;;;;6.90;4.80;;;15.90;99.90;;;;;;5035840;28;20213;-91
2022/07/27 03:52:49;;;;;;;7.50;5.07;;;15.90;99.90;;;;;;5019312;28;20176;-91
2022/07/27 03:55:15;;;;;;;6.50;4.63;;;15.90;99.90;;;;;;5036102;28;20633;-91
2022/07/27 03:57:41;;;;;;;8.32;5.10;;;15.90;99.90;;;;;;5035712;28;20207;-92
2022/07/27 04:00:10;;;;;;;10.57;5.60;;;15.90;99.90;;;;;;5054094;28;20686;-90
2022/07/27 04:02:35;;;;;;;9.50;4.55;;;15.90;99.90;;;;;;5019485;28;20210;-90
2022/07/27 04:05:01;;;;;;;10.80;5.55;;;15.80;99.90;;;;;;5019307;28;20212;-91
2022/07/27 04:07:27;;;;;;;10.60;5.30;;;15.90;99.90;;;;;;5053220;28;20259;-92
2022/07/27 04:09:53;;;;;;;11.40;5.35;;;15.90;99.90;;;;;;5019836;28;20198;-92
2022/07/27 04:12:18;;;;;;;10.15;5.35;;;16.00;99.90;;;;;;5035972;28;20186;-90
2022/07/27 04:14:44;;;;;;;10.98;6.15;;;15.90;99.90;;;;;;5036136;28;20271;-91
2022/07/27 04:17:10;;;;;;;11.60;5.57;;;14.50;99.90;;;;;;5035823;28;20203;-90
2022/07/27 04:19:35;;;;;;;11.10;5.57;;;15.90;99.90;;;;;;5035715;28;20280;-92
2022/07/27 04:22:01;;;;;;;10.90;6.30;;;15.90;99.90;;;;;;5019296;28;20195;-92
2022/07/27 04:24:27;;;;;;;12.07;6.72;;;16.00;99.90;;;;;;5019490;28;20184;-94
2022/07/27 04:26:52;;;;;;;11.15;6.60;;;15.90;99.90;;;;;;5019469;28;20661;-90
2022/07/27 04:29:18;;;;;;;9.43;5.88;;;15.80;99.90;;;;;;5019172;28;20739;-90
2022/07/27 04:31:43;;;;;;;10.60;6.53;;;15.90;99.90;;;;;;5052160;28;20236;-92
2022/07/27 04:34:09;;;;;;;9.88;5.70;;;15.90;99.90;;;;;;5055994;28;20633;-92
2022/07/27 04:36:37;;;;;;;9.85;6.72;;;16.00;99.90;;;;;;5056912;28;20187;-91
2022/07/27 04:39:02;;;;;;;16.48;6.85;;;16.00;99.90;;;;;;5039104;28;20203;-91
2022/07/27 04:41:28;;;;;;;18.48;7.30;;;16.00;99.90;;;;;;5056777;28;20190;-91
2022/07/27 04:43:53;;;;;;;12.57;7.00;;;16.00;99.90;;;;;;5022732;28;20183;-92
2022/07/27 04:46:19;;;;;;;13.80;7.00;;;16.10;99.90;;;;;;5056459;28;20176;-89
2022/07/27 04:48:45;;;;;;;12.05;7.43;;;16.20;99.90;;;;;;5056858;28;20176;-92
2022/07/27 04:51:14;;;;;;;16.30;7.20;;;16.10;99.90;;;;;;5039110;28;20211;-92
2022/07/27 04:53:40;;;;;;;16.20;7.93;;;16.00;99.90;;;;;;5056759;28;20251;-92
2022/07/27 04:56:07;;;;;;;15.57;8.00;;;16.10;99.90;;;;;;5038778;28;20206;-91
2022/07/27 04:58:33;;;;;;;12.15;7.72;;;16.10;99.90;;;;;;5038706;28;20206;-91
2022/07/27 05:00:58;;;;;;;14.40;7.38;;;16.20;99.90;;;;;;5022324;28;20512;-91
2022/07/27 05:03:24;;;;;;;17.80;7.95;;;16.20;99.90;;;;;;5038352;28;20656;-90
2022/07/27 05:05:49;;;;;;;14.35;8.70;;;16.10;99.90;;;;;;5056294;28;20187;-90
2022/07/27 05:08:15;;;;;;;14.55;8.18;;;16.20;99.90;;;;;;5056550;28;20179;-90
2022/07/27 05:10:41;;;;;;;11.98;7.80;;;16.20;99.90;;;;;;5056241;28;20176;-90
2022/07/27 05:13:06;;;;;;;17.20;8.52;;;16.30;99.90;;;;;;5056365;28;20566;-90
2022/07/27 05:15:32;;;;;;;18.98;9.63;;;16.40;99.90;;;;;;5056680;28;20187;-89
2022/07/27 05:17:57;;;;;;;17.65;8.23;;;16.40;99.90;;;;;;5038503;28;20202;-90
2022/07/27 05:20:24;;;;;;;19.67;10.18;;;16.40;99.90;;;;;;5056224;28;20214;-89
2022/07/27 05:22:50;;;;;;;18.75;8.43;;;16.50;99.90;;;;;;5038521;28;20237;-91
2022/07/27 05:25:16;;;;;;;14.75;7.97;;;16.60;99.90;;;;;;5039022;28;20187;-90
2022/07/27 05:27:41;;;;;;;16.00;8.85;;;16.50;99.90;;;;;;5062707;28;20263;-89
2022/07/27 05:33:29;;;;;;;13.93;8.32;;;16.50;99.90;;;;;;5256588;23;20248;-92
2022/07/27 05:35:55;;;;;;;16.60;8.25;;;16.50;99.90;;;;;;5042255;28;20628;-90
2022/07/27 05:38:21;;;;;;;14.25;8.43;;;16.50;99.90;;;;;;5032470;28;20196;-89
2022/07/27 05:40:47;;;;;;;15.15;8.27;;;16.60;99.90;;;;;;5024587;28;20556;-91
2022/07/27 05:43:12;;;;;;;19.08;8.80;;;16.50;99.90;;;;;;5037038;28;20173;-91
2022/07/27 05:45:38;;;;;;;19.08;10.38;;;16.50;99.90;;;;;;5017585;28;20211;-94
2022/07/27 05:48:04;;;;;;;12.60;8.32;;;16.40;99.90;;;;;;5036029;28;20556;-93
2022/07/27 05:50:30;;;;;;;18.92;9.93;;;16.40;99.90;;;;;;5035650;28;20207;-92
2022/07/27 05:52:57;;;;;;;18.50;9.80;;;16.40;99.90;;;;;;5001702;28;20184;-92
2022/07/27 05:55:23;;;;;;;15.30;8.88;;;16.40;99.90;;;;;;5002635;28;20191;-90
2022/07/27 05:57:49;;;;;;;19.38;10.23;;;16.40;99.90;;;;;;5018784;28;20200;-92
2022/07/27 06:00:15;;;;;;;16.58;9.15;;;16.50;99.90;;;;;;5012420;28;20188;-90
2022/07/27 06:02:41;;;;;;;15.85;9.32;;;16.50;99.90;;;;;;5054404;28;20187;-89
2022/07/27 06:05:07;;;;;;;18.00;9.60;;;16.50;99.90;;;;;;5056240;28;20177;-90
2022/07/27 06:10:17;;;;;;;17.65;8.93;;;16.50;99.90;;;;;;5035870;28;20234;-93
2022/07/27 06:12:44;;;;;;;21.45;10.32;;;16.60;99.90;;;;;;5019083;28;20192;-92
2022/07/27 06:15:12;;;;;;;20.95;10.43;;;16.60;99.90;;;;;;5020329;28;20181;-91
2022/07/27 06:17:38;;;;;;;17.08;9.35;;;16.60;99.90;;;;;;5034972;28;20201;-89
2022/07/27 06:20:07;;;;;;;18.98;9.38;;;16.50;99.90;;;;;;5029218;28;20178;-92
2022/07/27 06:22:42;;;;;;;22.52;10.23;;;16.50;99.90;;;;;;5023354;28;20220;-89
2022/07/27 06:25:08;;;;;;;20.85;10.35;;;16.40;99.90;;;;;;5016235;28;20229;-90
2022/07/27 06:27:36;;;;;;;18.63;10.13;;;16.50;99.90;;;;;;5007341;28;20188;-91
2022/07/27 06:30:03;;;;;;;19.55;10.18;;;16.40;99.90;;;;;;5030849;28;20189;-90
2022/07/27 06:32:28;;;;;;;17.02;8.60;;;16.40;99.90;;;;;;5018927;28;20283;-88
2022/07/27 06:34:54;;;;;;;17.50;9.13;;;16.40;99.90;;;;;;5036178;28;20185;-92
2022/07/27 06:37:19;;;;;;;21.83;10.07;;;16.40;99.90;;;;;;5026183;28;20266;-92
2022/07/27 06:39:45;;;;;;;15.93;9.15;;;16.40;99.90;;;;;;5016465;28;20575;-93
2022/07/27 06:42:13;;;;;;;17.10;9.40;;;16.40;99.90;;;;;;5017813;28;20271;-93
2022/07/27 06:44:39;;;;;;;18.45;9.32;;;16.40;99.90;;;;;;5039079;28;20172;-93
2022/07/27 06:47:05;;;;;;;19.33;9.90;;;16.50;99.90;;;;;;5021263;28;20193;-92
2022/07/27 06:49:30;;;;;;;24.85;12.27;;;16.50;99.90;;;;;;5014039;28;20181;-90
2022/07/27 06:51:56;;;;;;;21.52;10.52;;;16.60;99.90;;;;;;5008582;28;20192;-90
2022/07/27 06:54:22;;;;;;;16.63;9.60;;;16.60;99.90;;;;;;5007065;28;20176;-93
2022/07/27 06:56:48;;;;;;;19.25;9.35;;;16.60;99.90;;;;;;5025139;28;20184;-94
2022/07/27 06:59:13;;;;;;;18.48;9.48;;;16.60;99.90;;;;;;5006113;28;20686;-91
2022/07/27 07:01:39;;;;;;;19.65;10.45;;;16.60;99.90;;;;;;5008478;28;20181;-92
2022/07/27 07:04:05;;;;;;;22.38;10.50;;;16.60;99.90;;;;;;5026008;28;20220;-92
2022/07/27 07:06:31;;;;;;;21.15;10.35;;;16.60;99.90;;;;;;4999549;28;20180;-91
2022/07/27 07:08:56;;;;;;;19.05;10.07;;;16.70;99.90;;;;;;5012859;28;20188;-92
2022/07/27 07:11:22;;;;;;;21.10;11.02;;;16.70;99.90;;;;;;5013112;28;20552;-91
2022/07/27 07:13:47;;;;;;;15.80;9.60;;;16.80;99.90;;;;;;5015275;28;20184;-89
2022/07/27 07:16:13;;;;;;;18.52;10.88;;;16.90;99.90;;;;;;5015157;28;20630;-89
2022/07/27 07:18:39;;;;;;;18.05;10.23;;;16.80;99.90;;;;;;5013747;28;20212;-91
2022/07/27 07:21:04;;;;;;;19.45;10.13;;;16.90;99.90;;;;;;5001250;28;20188;-89
2022/07/27 07:23:30;;;;;;;15.60;8.75;;;16.90;99.90;;;;;;5011750;28;20195;-88
2022/07/27 07:25:56;;;;;;;14.45;8.40;;;16.90;99.90;;;;;;5012314;28;20548;-91
2022/07/27 07:28:21;;;;;;;15.43;8.35;;;16.90;99.90;;;;;;5033118;28;20224;-91
2022/07/27 07:30:48;;;;;;;12.27;7.10;;;17.00;99.90;;;;;;5032605;28;20169;-92
2022/07/27 07:33:14;;;;;;;18.48;8.70;;;17.00;99.90;;;;;;5016275;28;20236;-94
2022/07/27 07:35:40;;;;;;;17.55;9.48;;;17.10;99.90;;;;;;5034199;28;20180;-93
2022/07/27 07:38:06;;;;;;;20.20;9.65;;;17.10;99.90;;;;;;5033848;28;20204;-92
2022/07/27 07:40:31;;;;;;;16.20;9.07;;;17.20;99.90;;;;;;5034213;28;20180;-92
2022/07/27 07:42:59;;;;;;;17.23;8.82;;;17.30;99.90;;;;;;5015220;28;20238;-90
2022/07/27 07:45:26;;;;;;;14.73;8.55;;;17.40;99.90;;;;;;5027642;28;20543;-91
2022/07/27 07:47:52;;;;;;;15.63;7.85;;;17.50;99.90;;;;;;4995758;28;20591;-91
2022/07/27 07:50:19;;;;;;;21.13;9.77;;;17.50;99.90;;;;;;5013082;28;20204;-93
2022/07/27 07:52:47;;;;;;;18.88;9.50;;;17.50;99.90;;;;;;4996595;28;20221;-93
2022/07/27 07:55:12;;;;;;;19.58;8.63;;;17.50;99.90;;;;;;5014151;28;20611;-90
2022/07/27 07:57:38;;;;;;;17.00;8.43;;;17.60;99.90;;;;;;4996323;28;20240;-91
2022/07/27 08:00:07;;;;;;;16.35;8.77;;;17.60;99.90;;;;;;5016147;28;20177;-91
2022/07/27 08:02:42;;;;;;;17.52;8.27;;;17.60;99.90;;;;;;5000278;28;20212;-89
2022/07/27 08:05:08;;;;;;;16.65;8.38;;;17.60;99.90;;;;;;4996857;28;20205;-92
2022/07/27 08:07:33;;;;;;;17.98;9.05;;;17.60;99.90;;;;;;4997246;28;20267;-91
2022/07/27 08:09:59;;;;;;;16.58;8.82;;;17.60;99.90;;;;;;4983544;28;20186;-90
2022/07/27 08:12:24;;;;;;;18.88;8.68;;;17.60;99.90;;;;;;5033933;28;20198;-91
2022/07/27 08:14:50;;;;;;;19.38;8.15;;;17.70;99.90;;;;;;5019158;28;20191;-90
2022/07/27 08:17:16;;;;;;;16.25;8.10;;;17.70;99.90;;;;;;5026031;28;20608;-91
2022/07/27 08:19:41;;;;;;;15.38;8.15;;;17.80;99.90;;;;;;5018271;28;20533;-91
2022/07/27 08:22:07;;;;;;;16.20;8.65;;;17.80;99.90;;;;;;5016027;28;20177;-94
2022/07/27 08:24:33;;;;;;;14.30;8.05;;;17.90;99.90;;;;;;5001443;28;20228;-90
2022/07/27 08:26:58;;;;;;;18.67;9.35;;;17.90;99.90;;;;;;4999574;28;20209;-91
2022/07/27 08:29:24;;;;;;;12.27;7.20;;;18.00;99.90;;;;;;5001423;28;20545;-91
2022/07/27 08:31:49;;;;;;;15.75;8.15;;;18.00;99.90;;;;;;5036298;28;20180;-91
2022/07/27 08:34:15;;;;;;;15.07;7.80;;;18.10;99.90;;;;;;5003261;28;20697;-93
2022/07/27 08:36:41;;;;;;;13.30;7.28;;;18.10;99.90;;;;;;5020534;28;20169;-91
2022/07/27 08:39:07;;;;;;;14.32;8.07;;;18.20;99.90;;;;;;5019082;28;20668;-91
2022/07/27 08:41:38;;;;;;;12.48;6.43;;;18.40;99.90;;;;;;5031845;28;20193;-89
2022/07/27 08:44:05;;;;;;;12.38;6.30;;;18.40;99.90;;;;;;5057974;28;20181;-90
2022/07/27 08:46:31;;;;;;;12.48;6.10;;;18.50;99.90;;;;;;5031717;28;20177;-93
2022/07/27 08:49:00;;;;;;;10.18;6.07;;;18.50;99.90;;;;;;5015227;28;20665;-92
2022/07/27 08:51:26;;;;;;;9.77;6.05;;;18.70;99.90;;;;;;5018866;28;20187;-91
2022/07/27 08:53:54;;;;;;;7.75;5.20;;;18.90;99.90;;;;;;5016017;28;20558;-94
2022/07/27 08:56:20;;;;;;;10.43;6.13;;;19.00;99.90;;;;;;5017393;28;20212;-91
2022/07/27 08:58:46;;;;;;;8.65;5.20;;;19.20;99.90;;;;;;4998998;28;20562;-89
2022/07/27 09:01:12;;;;;;;6.15;4.55;;;19.40;99.90;;;;;;4999316;28;20185;-92
2022/07/27 09:03:38;;;;;;;9.70;5.20;;;19.40;99.90;;;;;;5016846;28;20176;-90
2022/07/27 09:06:04;;;;;;;7.20;4.43;;;19.50;99.90;;;;;;5004157;28;20203;-92
2022/07/27 09:08:32;;;;;;;8.98;4.97;;;19.50;99.90;;;;;;5006360;28;20673;-92
2022/07/27 09:10:59;;;;;;;6.38;4.63;;;19.70;99.90;;;;;;5016122;28;20261;-90
2022/07/27 09:13:29;;;;;;;5.90;4.60;;;19.80;99.90;;;;;;5000791;28;20177;-94
2022/07/27 09:16:02;;;;;;;7.82;5.30;;;20.00;99.90;;;;;;5002660;28;20284;-93
2022/07/27 09:18:30;;;;;;;7.65;3.95;;;20.10;99.90;;;;;;5024280;28;20212;-91
2022/07/27 09:21:19;;;;;;;5.28;3.95;;;20.20;99.90;;;;;;5029400;28;20576;-91
2022/07/27 09:24:10;;;;;;;3.15;2.50;;;20.10;99.90;;;;;;5019841;28;20166;-91
2022/07/27 09:26:36;;;;;;;4.53;3.33;;;19.90;99.90;;;;;;5019922;28;20236;-91
2022/07/27 09:29:14;;;;;;;3.60;2.67;;;19.70;99.90;;;;;;5009108;28;20177;-89
2022/07/27 09:31:50;;;;;;;3.80;2.60;;;19.80;99.90;;;;;;5013665;28;20704;-93
2022/07/27 09:34:32;;;;;;;3.42;2.55;;;20.00;99.90;;;;;;4997282;28;20234;-92
2022/07/27 09:36:58;;;;;;;3.95;2.13;;;20.40;99.90;;;;;;5016125;28;20648;-88
2022/07/27 09:39:26;;;;;;;3.85;2.70;;;20.70;99.90;;;;;;5015058;28;20269;-90
2022/07/27 09:41:58;;;;;;;8.65;2.92;;;20.90;99.90;;;;;;5007920;28;20708;-92
2022/07/27 09:44:37;;;;;;;2.03;1.75;;;21.00;99.90;;;;;;5025953;28;20172;-91
2022/07/27 09:47:21;;;;;;;4.10;1.85;;;21.10;99.90;;;;;;5025242;28;20195;-91
2022/07/27 09:49:47;;;;;;;2.25;1.70;;;21.20;99.90;;;;;;5025582;28;20177;-91
2022/07/27 09:52:26;;;;;;;2.00;1.55;;;21.30;99.90;;;;;;5000796;28;20181;-89
2022/07/27 09:54:52;;;;;;;1.65;1.42;;;21.50;99.90;;;;;;5012580;28;20279;-92
2022/07/27 09:57:18;;;;;;;1.50;1.20;;;21.50;99.90;;;;;;5030077;28;20540;-89
2022/07/27 09:59:44;;;;;;;1.50;1.40;;;21.60;99.90;;;;;;5034346;28;20560;-89
2022/07/27 10:02:12;;;;;;;5.07;1.90;;;21.60;99.90;;;;;;5017845;28;20259;-92
2022/07/27 10:04:38;;;;;;;1.40;1.30;;;21.80;99.90;;;;;;5017438;28;20188;-90
2022/07/27 10:07:04;;;;;;;0.85;0.82;;;22.00;99.90;;;;;;5017204;28;20626;-90
2022/07/27 10:09:30;;;;;;;1.45;1.35;;;22.10;99.90;;;;;;5036503;28;20691;-91
2022/07/27 10:11:56;;;;;;;1.70;1.33;;;22.20;99.90;;;;;;5036008;28;20203;-90
2022/07/27 10:14:22;;;;;;;1.20;1.10;;;22.20;99.90;;;;;;5038728;28;20481;-90
2022/07/27 10:16:48;;;;;;;2.97;1.02;;;22.00;99.90;;;;;;5041924;28;20187;-88
2022/07/27 10:19:19;;;;;;;0.82;0.82;;;21.80;99.90;;;;;;5035331;28;20201;-91
2022/07/27 10:21:46;;;;;;;1.40;1.20;;;21.80;99.90;;;;;;5052932;28;20181;-91
2022/07/27 10:24:31;;;;;;;2.78;1.30;;;22.10;99.90;;;;;;5019742;28;20231;-92
2022/07/27 10:26:57;;;;;;;3.45;1.23;;;22.20;99.90;;;;;;5033578;28;20216;-89
2022/07/27 10:29:23;;;;;;;2.38;1.00;;;22.20;99.90;;;;;;5035170;28;20604;-90
2022/07/27 10:31:52;;;;;;;0.80;0.80;;;22.30;99.90;;;;;;5016962;28;20238;-90
2022/07/27 10:34:34;;;;;;;0.80;0.70;;;22.50;99.90;;;;;;5018653;28;20239;-93
2022/07/27 10:37:14;;;;;;;1.10;0.90;;;22.70;99.90;;;;;;5036306;28;20191;-93
2022/07/27 10:39:48;;;;;;;1.58;0.95;;;22.70;99.90;;;;;;5035187;28;20183;-93
2022/07/27 10:42:26;;;;;;;0.65;0.65;;;22.70;99.90;;;;;;5035161;28;20181;-93
2022/07/27 10:45:07;;;;;;;0.65;0.65;;;22.60;99.90;;;;;;5035224;28;20680;-91
2022/07/27 10:47:40;;;;;;;1.50;0.80;;;22.60;99.90;;;;;;5034192;28;20218;-94
2022/07/27 10:50:15;;;;;;;1.35;0.88;;;22.70;99.90;;;;;;5016856;28;20181;-91
2022/07/27 10:52:48;;;;;;;0.77;0.77;;;22.70;99.90;;;;;;5035130;28;20175;-93
2022/07/27 10:55:46;;;;;;;0.77;0.73;;;22.60;99.90;;;;;;5035166;28;20618;-91
2022/07/27 10:58:12;;;;;;;0.65;0.65;;;22.80;99.90;;;;;;4973901;28;20239;-92
2022/07/27 11:00:50;;;;;;;1.23;0.70;;;23.00;99.90;;;;;;5016450;28;20173;-93
2022/07/27 11:03:22;;;;;;;0.60;0.60;;;23.20;99.90;;;;;;5034457;28;20187;-92
2022/07/27 11:05:57;;;;;;;0.73;0.73;;;23.20;99.90;;;;;;5034290;28;20187;-90
2022/07/27 11:08:28;;;;;;;0.65;0.60;;;23.20;99.90;;;;;;5036133;28;20190;-91
2022/07/27 11:10:53;;;;;;;2.10;1.27;;;23.10;99.90;;;;;;5017042;28;20189;-90
2022/07/27 11:13:21;;;;;;;1.17;0.70;;;23.20;99.90;;;;;;5034202;28;20641;-92
2022/07/27 11:16:00;;;;;;;0.60;0.60;;;23.40;99.90;;;;;;5033886;28;20637;-92
2022/07/27 11:18:31;;;;;;;1.10;0.70;;;23.10;99.90;;;;;;5033463;28;20204;-92
2022/07/27 11:21:27;;;;;;;0.88;0.88;;;23.30;99.90;;;;;;5034160;28;20191;-93
2022/07/27 11:24:04;;;;;;;0.98;0.60;;;23.40;99.90;;;;;;5034161;28;20167;-92
2022/07/27 11:26:38;;;;;;;0.85;0.50;;;23.40;99.90;;;;;;5017487;28;20617;-92
2022/07/27 11:29:07;;;;;;;2.45;0.80;;;23.60;99.90;;;;;;5016282;28;20180;-91
2022/07/27 11:31:34;;;;;;;0.60;0.60;;;23.70;99.90;;;;;;5034097;28;20701;-90
2022/07/27 11:34:00;;;;;;;1.42;0.82;;;23.60;99.90;;;;;;5016502;28;20224;-90
2022/07/27 11:36:40;;;;;;;0.40;0.38;;;23.20;99.90;;;;;;5015925;28;20707;-91
2022/07/27 11:39:09;;;;;;;0.50;0.40;;;23.30;99.90;;;;;;5034004;28;20195;-92
2022/07/27 11:41:36;;;;;;;1.20;1.10;;;23.30;99.90;;;;;;5033434;28;20184;-92
2022/07/27 11:44:07;;;;;;;0.40;0.38;;;23.40;99.90;;;;;;5033883;28;20176;-92
2022/07/27 11:46:41;;;;;;;2.20;0.95;;;23.40;99.90;;;;;;5033969;28;20712;-90
2022/07/27 11:49:11;;;;;;;0.65;0.50;;;23.40;99.90;;;;;;5033966;28;20172;-91
2022/07/27 11:51:38;;;;;;;0.50;0.50;;;23.60;99.90;;;;;;5034431;28;20206;-90
2022/07/27 11:54:25;;;;;;;1.88;0.82;;;23.90;99.90;;;;;;5015809;28;20271;-90
2022/07/27 11:56:54;;;;;;;0.50;0.50;;;23.90;99.90;;;;;;5030180;28;20184;-90
2022/07/27 11:59:26;;;;;;;0.50;0.43;;;23.80;99.90;;;;;;5033555;28;20235;-91
2022/07/27 12:02:04;;;;;;;0.82;0.60;;;23.90;99.80;;;;;;5034360;28;20173;-89
2022/07/27 12:04:35;;;;;;;0.73;0.70;;;23.90;97.90;;;;;;5032466;28;20180;-90
2022/07/27 12:07:10;;;;;;;0.60;0.50;;;24.00;99.30;;;;;;5034508;28;20521;-91
2022/07/27 12:09:37;;;;;;;0.47;0.47;;;24.20;97.30;;;;;;5033007;28;20247;-88
2022/07/27 12:12:20;;;;;;;0.63;0.38;;;24.40;98.40;;;;;;5008664;28;20219;-87
2022/07/27 12:14:56;;;;;;;1.05;0.70;;;24.20;93.50;;;;;;5013797;28;20200;-89
2022/07/27 12:17:28;;;;;;;0.95;0.70;;;24.20;95.80;;;;;;4997048;28;20270;-88
2022/07/27 12:20:10;;;;;;;0.82;0.73;;;24.20;94.30;;;;;;4996370;28;20591;-90
2022/07/27 12:22:42;;;;;;;1.02;0.50;;;24.20;93.00;;;;;;5013445;28;20157;-88
2022/07/27 12:25:28;;;;;;;1.52;0.45;;;24.10;91.50;;;;;;5017691;28;20268;-89
2022/07/27 12:27:59;;;;;;;1.23;0.57;;;24.30;91.50;;;;;;5006297;28;20256;-89
2022/07/27 12:30:48;;;;;;;0.40;0.40;;;24.30;91.40;;;;;;5024374;28;20196;-88
2022/07/27 12:33:27;;;;;;;0.30;0.30;;;24.30;86.90;;;;;;5020384;28;20225;-89
2022/07/27 12:35:53;;;;;;;0.93;0.60;;;24.10;85.80;;;;;;4995945;28;20177;-90
2022/07/27 12:38:19;;;;;;;0.38;0.35;;;24.20;88.60;;;;;;4996060;28;20209;-89
2022/07/27 12:40:48;;;;;;;0.50;0.50;;;24.30;86.30;;;;;;5013247;28;20181;-90
2022/07/27 12:43:19;;;;;;;0.38;0.38;;;24.10;84.90;;;;;;5013676;28;20630;-91
2022/07/27 12:45:47;;;;;;;1.23;0.60;;;24.00;83.20;;;;;;5013030;28;20328;-89
2022/07/27 12:48:19;;;;;;;0.57;0.57;;;24.00;87.80;;;;;;4999456;28;20248;-89
2022/07/27 12:50:47;;;;;;;0.45;0.45;;;24.40;87.70;;;;;;5021518;28;20191;-89
2022/07/27 12:53:15;;;;;;;0.52;0.50;;;24.40;84.10;;;;;;5003008;28;20319;-90
2022/07/27 12:55:42;;;;;;;1.85;0.50;;;24.40;81.10;;;;;;5026991;28;20200;-88